sensor_id;sensor_type;location;lat;lon;timestamp;P1;durP1;ratioP1;P2;durP2;ratioP2
840;SDS011;406;48.566;13.450;2022-07-03T00:00:56;9.27;;;5.83;;
840;SDS011;406;48.566;13.450;2022-07-03T00:03:22;6.87;;;5.93;;
840;SDS011;406;48.566;13.450;2022-07-03T00:05:47;8.40;;;5.70;;
840;SDS011;406;48.566;13.450;2022-07-03T00:08:13;6.73;;;6.10;;
840;SDS011;406;48.566;13.450;2022-07-03T00:10:39;8.87;;;6.73;;
840;SDS011;406;48.566;13.450;2022-07-03T00:13:04;7.13;;;6.27;;
840;SDS011;406;48.566;13.450;2022-07-03T00:15:30;7.83;;;6.50;;
840;SDS011;406;48.566;13.450;2022-07-03T00:17:55;9.57;;;5.77;;
840;SDS011;406;48.566;13.450;2022-07-03T00:20:21;7.60;;;6.50;;
840;SDS011;406;48.566;13.450;2022-07-03T00:22:47;8.83;;;6.50;;
840;SDS011;406;48.566;13.450;2022-07-03T00:25:13;7.00;;;6.37;;
840;SDS011;406;48.566;13.450;2022-07-03T00:27:39;7.67;;;6.90;;
840;SDS011;406;48.566;13.450;2022-07-03T00:30:05;10.97;;;6.80;;
840;SDS011;406;48.566;13.450;2022-07-03T00:32:33;8.57;;;6.10;;
840;SDS011;406;48.566;13.450;2022-07-03T00:34:58;7.10;;;6.40;;
840;SDS011;406;48.566;13.450;2022-07-03T00:37:25;6.63;;;5.93;;
840;SDS011;406;48.566;13.450;2022-07-03T00:39:50;11.03;;;6.50;;
840;SDS011;406;48.566;13.450;2022-07-03T00:42:16;7.20;;;6.00;;
840;SDS011;406;48.566;13.450;2022-07-03T00:44:53;7.30;;;6.60;;
840;SDS011;406;48.566;13.450;2022-07-03T00:47:21;7.50;;;6.73;;
840;SDS011;406;48.566;13.450;2022-07-03T00:49:48;7.90;;;7.10;;
840;SDS011;406;48.566;13.450;2022-07-03T00:52:18;13.13;;;6.77;;
840;SDS011;406;48.566;13.450;2022-07-03T00:54:45;8.60;;;6.50;;
840;SDS011;406;48.566;13.450;2022-07-03T00:57:17;7.80;;;6.00;;
840;SDS011;406;48.566;13.450;2022-07-03T00:59:44;7.40;;;6.50;;
840;SDS011;406;48.566;13.450;2022-07-03T01:02:13;8.03;;;7.20;;
840;SDS011;406;48.566;13.450;2022-07-03T01:07:37;9.90;;;7.17;;
840;SDS011;406;48.566;13.450;2022-07-03T01:10:12;7.80;;;7.00;;
840;SDS011;406;48.566;13.450;2022-07-03T01:13:00;8.93;;;7.37;;
840;SDS011;406;48.566;13.450;2022-07-03T01:21:40;7.60;;;6.70;;
840;SDS011;406;48.566;13.450;2022-07-03T01:27:27;7.57;;;6.00;;
840;SDS011;406;48.566;13.450;2022-07-03T01:32:37;9.63;;;7.73;;
840;SDS011;406;48.566;13.450;2022-07-03T01:35:05;8.23;;;7.10;;
840;SDS011;406;48.566;13.450;2022-07-03T01:37:33;7.57;;;6.77;;
840;SDS011;406;48.566;13.450;2022-07-03T01:40:00;10.50;;;7.00;;
840;SDS011;406;48.566;13.450;2022-07-03T01:42:28;9.40;;;8.20;;
840;SDS011;406;48.566;13.450;2022-07-03T01:44:53;8.50;;;6.67;;
840;SDS011;406;48.566;13.450;2022-07-03T01:47:20;8.93;;;8.00;;
840;SDS011;406;48.566;13.450;2022-07-03T01:49:48;8.77;;;7.33;;
840;SDS011;406;48.566;13.450;2022-07-03T01:52:14;8.23;;;7.43;;
840;SDS011;406;48.566;13.450;2022-07-03T01:54:40;10.33;;;6.97;;
840;SDS011;406;48.566;13.450;2022-07-03T01:57:07;7.90;;;7.10;;
840;SDS011;406;48.566;13.450;2022-07-03T01:59:33;10.80;;;6.60;;
840;SDS011;406;48.566;13.450;2022-07-03T02:02:03;8.70;;;6.77;;
840;SDS011;406;48.566;13.450;2022-07-03T02:04:40;7.43;;;6.73;;
840;SDS011;406;48.566;13.450;2022-07-03T02:07:18;9.20;;;7.80;;
840;SDS011;406;48.566;13.450;2022-07-03T02:09:52;8.17;;;7.00;;
840;SDS011;406;48.566;13.450;2022-07-03T02:12:27;8.50;;;6.90;;
840;SDS011;406;48.566;13.450;2022-07-03T02:14:58;8.50;;;7.40;;
840;SDS011;406;48.566;13.450;2022-07-03T02:17:28;8.43;;;6.93;;
840;SDS011;406;48.566;13.450;2022-07-03T02:20:02;8.33;;;7.43;;
840;SDS011;406;48.566;13.450;2022-07-03T02:27:47;8.30;;;6.70;;
840;SDS011;406;48.566;13.450;2022-07-03T02:30:16;8.10;;;7.30;;
840;SDS011;406;48.566;13.450;2022-07-03T02:32:44;9.80;;;6.63;;
840;SDS011;406;48.566;13.450;2022-07-03T02:35:17;6.80;;;6.07;;
840;SDS011;406;48.566;13.450;2022-07-03T02:37:52;7.93;;;7.00;;
840;SDS011;406;48.566;13.450;2022-07-03T02:42:55;12.83;;;7.57;;
840;SDS011;406;48.566;13.450;2022-07-03T02:45:29;10.40;;;6.80;;
840;SDS011;406;48.566;13.450;2022-07-03T02:48:02;8.70;;;7.80;;
840;SDS011;406;48.566;13.450;2022-07-03T02:50:38;9.40;;;7.60;;
840;SDS011;406;48.566;13.450;2022-07-03T02:53:11;7.50;;;6.80;;
840;SDS011;406;48.566;13.450;2022-07-03T02:55:46;8.40;;;7.60;;
840;SDS011;406;48.566;13.450;2022-07-03T03:01:09;8.43;;;7.37;;
840;SDS011;406;48.566;13.450;2022-07-03T03:03:39;11.40;;;7.80;;
840;SDS011;406;48.566;13.450;2022-07-03T03:06:12;10.90;;;7.00;;
840;SDS011;406;48.566;13.450;2022-07-03T03:08:53;11.53;;;7.93;;
840;SDS011;406;48.566;13.450;2022-07-03T03:11:32;8.63;;;7.73;;
840;SDS011;406;48.566;13.450;2022-07-03T03:14:14;10.30;;;8.50;;
840;SDS011;406;48.566;13.450;2022-07-03T03:16:48;8.97;;;7.57;;
840;SDS011;406;48.566;13.450;2022-07-03T03:19:15;11.00;;;7.70;;
840;SDS011;406;48.566;13.450;2022-07-03T03:22:14;9.43;;;8.10;;
840;SDS011;406;48.566;13.450;2022-07-03T03:24:52;8.60;;;7.60;;
840;SDS011;406;48.566;13.450;2022-07-03T03:27:18;8.73;;;7.80;;
840;SDS011;406;48.566;13.450;2022-07-03T03:29:44;8.77;;;7.87;;
840;SDS011;406;48.566;13.450;2022-07-03T03:32:10;9.70;;;7.93;;
840;SDS011;406;48.566;13.450;2022-07-03T03:34:36;9.43;;;7.43;;
840;SDS011;406;48.566;13.450;2022-07-03T03:37:04;8.27;;;7.47;;
840;SDS011;406;48.566;13.450;2022-07-03T03:39:30;8.80;;;7.30;;
840;SDS011;406;48.566;13.450;2022-07-03T03:41:56;8.87;;;7.57;;
840;SDS011;406;48.566;13.450;2022-07-03T03:44:21;10.23;;;8.87;;
840;SDS011;406;48.566;13.450;2022-07-03T03:46:47;9.83;;;8.00;;
840;SDS011;406;48.566;13.450;2022-07-03T03:49:13;9.40;;;8.27;;
840;SDS011;406;48.566;13.450;2022-07-03T03:51:39;11.13;;;8.23;;
840;SDS011;406;48.566;13.450;2022-07-03T03:54:04;11.60;;;8.23;;
840;SDS011;406;48.566;13.450;2022-07-03T03:56:30;9.07;;;8.17;;
840;SDS011;406;48.566;13.450;2022-07-03T03:58:55;8.93;;;7.80;;
840;SDS011;406;48.566;13.450;2022-07-03T04:01:21;10.53;;;8.37;;
840;SDS011;406;48.566;13.450;2022-07-03T04:03:47;8.83;;;7.90;;
840;SDS011;406;48.566;13.450;2022-07-03T04:06:12;13.87;;;7.70;;
840;SDS011;406;48.566;13.450;2022-07-03T04:08:37;9.63;;;7.63;;
840;SDS011;406;48.566;13.450;2022-07-03T04:11:03;12.10;;;8.70;;
840;SDS011;406;48.566;13.450;2022-07-03T04:13:28;8.70;;;7.80;;
840;SDS011;406;48.566;13.450;2022-07-03T04:15:54;9.97;;;6.83;;
840;SDS011;406;48.566;13.450;2022-07-03T04:18:20;9.07;;;7.57;;
840;SDS011;406;48.566;13.450;2022-07-03T04:20:46;8.90;;;7.43;;
840;SDS011;406;48.566;13.450;2022-07-03T04:23:11;9.87;;;7.93;;
840;SDS011;406;48.566;13.450;2022-07-03T04:25:37;9.87;;;8.57;;
840;SDS011;406;48.566;13.450;2022-07-03T04:28:03;9.83;;;7.57;;
840;SDS011;406;48.566;13.450;2022-07-03T04:30:28;14.13;;;7.40;;
840;SDS011;406;48.566;13.450;2022-07-03T04:32:54;9.03;;;7.43;;
840;SDS011;406;48.566;13.450;2022-07-03T04:35:19;7.87;;;6.87;;
840;SDS011;406;48.566;13.450;2022-07-03T04:37:45;9.37;;;7.73;;
840;SDS011;406;48.566;13.450;2022-07-03T04:40:11;8.97;;;7.57;;
840;SDS011;406;48.566;13.450;2022-07-03T04:42:37;7.90;;;7.00;;
840;SDS011;406;48.566;13.450;2022-07-03T04:45:02;10.13;;;7.73;;
840;SDS011;406;48.566;13.450;2022-07-03T04:47:28;9.57;;;6.47;;
840;SDS011;406;48.566;13.450;2022-07-03T04:49:54;9.13;;;6.10;;
840;SDS011;406;48.566;13.450;2022-07-03T04:52:19;12.40;;;6.37;;
840;SDS011;406;48.566;13.450;2022-07-03T04:54:45;6.63;;;5.93;;
840;SDS011;406;48.566;13.450;2022-07-03T04:57:10;7.77;;;6.20;;
840;SDS011;406;48.566;13.450;2022-07-03T04:59:36;7.20;;;6.13;;
840;SDS011;406;48.566;13.450;2022-07-03T05:02:02;7.43;;;6.40;;
840;SDS011;406;48.566;13.450;2022-07-03T05:04:27;6.40;;;5.80;;
840;SDS011;406;48.566;13.450;2022-07-03T05:06:53;10.57;;;7.10;;
840;SDS011;406;48.566;13.450;2022-07-03T05:09:18;7.17;;;5.83;;
840;SDS011;406;48.566;13.450;2022-07-03T05:11:44;9.33;;;6.73;;
840;SDS011;406;48.566;13.450;2022-07-03T05:14:10;9.17;;;5.53;;
840;SDS011;406;48.566;13.450;2022-07-03T05:16:35;7.37;;;6.00;;
840;SDS011;406;48.566;13.450;2022-07-03T05:19:01;6.43;;;5.40;;
840;SDS011;406;48.566;13.450;2022-07-03T05:21:27;7.40;;;6.70;;
840;SDS011;406;48.566;13.450;2022-07-03T05:23:52;7.33;;;6.50;;
840;SDS011;406;48.566;13.450;2022-07-03T05:26:18;13.47;;;6.70;;
840;SDS011;406;48.566;13.450;2022-07-03T05:28:43;7.93;;;5.30;;
840;SDS011;406;48.566;13.450;2022-07-03T05:31:09;5.93;;;4.97;;
840;SDS011;406;48.566;13.450;2022-07-03T05:33:34;6.50;;;5.90;;
840;SDS011;406;48.566;13.450;2022-07-03T05:36:00;6.10;;;5.40;;
840;SDS011;406;48.566;13.450;2022-07-03T05:38:26;7.60;;;5.33;;
840;SDS011;406;48.566;13.450;2022-07-03T05:41:10;7.50;;;5.40;;
840;SDS011;406;48.566;13.450;2022-07-03T05:43:36;6.47;;;5.50;;
840;SDS011;406;48.566;13.450;2022-07-03T05:46:02;9.40;;;5.20;;
840;SDS011;406;48.566;13.450;2022-07-03T05:48:28;6.70;;;5.67;;
840;SDS011;406;48.566;13.450;2022-07-03T05:50:54;6.20;;;5.53;;
840;SDS011;406;48.566;13.450;2022-07-03T05:53:20;6.20;;;5.60;;
840;SDS011;406;48.566;13.450;2022-07-03T05:55:45;6.03;;;5.13;;
840;SDS011;406;48.566;13.450;2022-07-03T05:58:11;6.27;;;4.40;;
840;SDS011;406;48.566;13.450;2022-07-03T06:00:36;8.67;;;4.97;;
840;SDS011;406;48.566;13.450;2022-07-03T06:03:02;8.90;;;4.80;;
840;SDS011;406;48.566;13.450;2022-07-03T06:05:27;5.57;;;4.77;;
840;SDS011;406;48.566;13.450;2022-07-03T06:07:53;7.50;;;4.87;;
840;SDS011;406;48.566;13.450;2022-07-03T06:10:19;5.50;;;4.73;;
840;SDS011;406;48.566;13.450;2022-07-03T06:12:44;5.60;;;4.77;;
840;SDS011;406;48.566;13.450;2022-07-03T06:15:10;6.13;;;5.27;;
840;SDS011;406;48.566;13.450;2022-07-03T06:17:35;5.00;;;4.50;;
840;SDS011;406;48.566;13.450;2022-07-03T06:20:02;5.17;;;4.67;;
840;SDS011;406;48.566;13.450;2022-07-03T06:22:31;6.93;;;4.50;;
840;SDS011;406;48.566;13.450;2022-07-03T06:24:57;13.10;;;7.07;;
840;SDS011;406;48.566;13.450;2022-07-03T06:27:22;5.63;;;4.00;;
840;SDS011;406;48.566;13.450;2022-07-03T06:29:48;6.10;;;5.50;;
840;SDS011;406;48.566;13.450;2022-07-03T06:32:15;6.20;;;4.50;;
840;SDS011;406;48.566;13.450;2022-07-03T06:34:41;4.53;;;4.13;;
840;SDS011;406;48.566;13.450;2022-07-03T06:37:08;8.30;;;4.03;;
840;SDS011;406;48.566;13.450;2022-07-03T06:39:34;4.63;;;3.73;;
840;SDS011;406;48.566;13.450;2022-07-03T06:41:59;4.93;;;4.47;;
840;SDS011;406;48.566;13.450;2022-07-03T06:44:25;5.67;;;5.17;;
840;SDS011;406;48.566;13.450;2022-07-03T06:46:50;6.33;;;3.47;;
840;SDS011;406;48.566;13.450;2022-07-03T06:49:16;4.30;;;3.20;;
840;SDS011;406;48.566;13.450;2022-07-03T06:51:41;6.03;;;4.30;;
840;SDS011;406;48.566;13.450;2022-07-03T06:54:07;5.30;;;4.50;;
840;SDS011;406;48.566;13.450;2022-07-03T06:56:32;4.50;;;3.73;;
840;SDS011;406;48.566;13.450;2022-07-03T06:58:58;4.37;;;3.97;;
840;SDS011;406;48.566;13.450;2022-07-03T07:01:23;4.47;;;3.87;;
840;SDS011;406;48.566;13.450;2022-07-03T07:03:49;4.70;;;4.23;;
840;SDS011;406;48.566;13.450;2022-07-03T07:06:14;6.33;;;5.00;;
840;SDS011;406;48.566;13.450;2022-07-03T07:08:40;5.03;;;3.93;;
840;SDS011;406;48.566;13.450;2022-07-03T07:11:05;4.50;;;4.10;;
840;SDS011;406;48.566;13.450;2022-07-03T07:13:31;4.43;;;3.90;;
840;SDS011;406;48.566;13.450;2022-07-03T07:15:56;7.23;;;4.67;;
840;SDS011;406;48.566;13.450;2022-07-03T07:18:22;4.80;;;4.30;;
840;SDS011;406;48.566;13.450;2022-07-03T07:20:47;6.33;;;4.63;;
840;SDS011;406;48.566;13.450;2022-07-03T07:23:13;5.00;;;4.40;;
840;SDS011;406;48.566;13.450;2022-07-03T07:25:38;4.10;;;3.70;;
840;SDS011;406;48.566;13.450;2022-07-03T07:28:04;5.43;;;4.37;;
840;SDS011;406;48.566;13.450;2022-07-03T07:30:29;5.00;;;4.07;;
840;SDS011;406;48.566;13.450;2022-07-03T07:32:54;4.87;;;4.20;;
840;SDS011;406;48.566;13.450;2022-07-03T07:35:20;5.20;;;4.03;;
840;SDS011;406;48.566;13.450;2022-07-03T07:37:45;7.70;;;4.70;;
840;SDS011;406;48.566;13.450;2022-07-03T07:40:13;6.47;;;5.00;;
840;SDS011;406;48.566;13.450;2022-07-03T07:42:39;4.83;;;4.33;;
840;SDS011;406;48.566;13.450;2022-07-03T07:45:04;5.27;;;4.40;;
840;SDS011;406;48.566;13.450;2022-07-03T07:47:30;5.80;;;5.20;;
840;SDS011;406;48.566;13.450;2022-07-03T07:49:56;5.10;;;4.57;;
840;SDS011;406;48.566;13.450;2022-07-03T07:52:21;6.00;;;4.63;;
840;SDS011;406;48.566;13.450;2022-07-03T07:54:49;5.87;;;4.77;;
840;SDS011;406;48.566;13.450;2022-07-03T07:57:15;4.23;;;3.87;;
840;SDS011;406;48.566;13.450;2022-07-03T07:59:40;5.63;;;4.07;;
840;SDS011;406;48.566;13.450;2022-07-03T08:02:06;4.77;;;4.07;;
840;SDS011;406;48.566;13.450;2022-07-03T08:04:50;6.10;;;4.43;;
840;SDS011;406;48.566;13.450;2022-07-03T08:07:34;3.47;;;3.17;;
840;SDS011;406;48.566;13.450;2022-07-03T08:09:59;5.10;;;4.20;;
840;SDS011;406;48.566;13.450;2022-07-03T08:12:25;4.83;;;3.17;;
840;SDS011;406;48.566;13.450;2022-07-03T08:14:50;3.57;;;3.27;;
840;SDS011;406;48.566;13.450;2022-07-03T08:17:16;5.57;;;4.50;;
840;SDS011;406;48.566;13.450;2022-07-03T08:19:41;4.47;;;4.07;;
840;SDS011;406;48.566;13.450;2022-07-03T08:22:07;4.40;;;3.67;;
840;SDS011;406;48.566;13.450;2022-07-03T08:24:33;4.47;;;4.17;;
840;SDS011;406;48.566;13.450;2022-07-03T08:26:58;3.77;;;3.30;;
840;SDS011;406;48.566;13.450;2022-07-03T08:29:23;5.50;;;4.83;;
840;SDS011;406;48.566;13.450;2022-07-03T08:31:49;4.40;;;3.70;;
840;SDS011;406;48.566;13.450;2022-07-03T08:34:14;4.70;;;4.30;;
840;SDS011;406;48.566;13.450;2022-07-03T08:36:41;4.27;;;3.83;;
840;SDS011;406;48.566;13.450;2022-07-03T08:39:07;13.77;;;4.03;;
840;SDS011;406;48.566;13.450;2022-07-03T08:41:33;3.83;;;3.53;;
840;SDS011;406;48.566;13.450;2022-07-03T08:44:04;4.10;;;3.70;;
840;SDS011;406;48.566;13.450;2022-07-03T08:46:31;3.77;;;3.37;;
840;SDS011;406;48.566;13.450;2022-07-03T08:48:57;5.13;;;4.03;;
840;SDS011;406;48.566;13.450;2022-07-03T08:51:25;4.07;;;3.50;;
840;SDS011;406;48.566;13.450;2022-07-03T08:53:52;4.23;;;3.80;;
840;SDS011;406;48.566;13.450;2022-07-03T08:56:20;3.33;;;3.03;;
840;SDS011;406;48.566;13.450;2022-07-03T08:58:46;3.33;;;3.03;;
840;SDS011;406;48.566;13.450;2022-07-03T09:01:15;6.53;;;3.80;;
840;SDS011;406;48.566;13.450;2022-07-03T09:03:43;4.20;;;3.63;;
840;SDS011;406;48.566;13.450;2022-07-03T09:06:08;6.40;;;3.97;;
840;SDS011;406;48.566;13.450;2022-07-03T09:08:34;6.97;;;3.67;;
840;SDS011;406;48.566;13.450;2022-07-03T09:11:01;4.90;;;3.20;;
840;SDS011;406;48.566;13.450;2022-07-03T09:13:29;3.70;;;3.20;;
840;SDS011;406;48.566;13.450;2022-07-03T09:15:54;4.20;;;3.23;;
840;SDS011;406;48.566;13.450;2022-07-03T09:18:35;3.33;;;2.83;;
840;SDS011;406;48.566;13.450;2022-07-03T09:21:05;3.50;;;3.20;;
840;SDS011;406;48.566;13.450;2022-07-03T09:23:40;4.23;;;3.17;;
840;SDS011;406;48.566;13.450;2022-07-03T09:26:11;3.17;;;2.87;;
840;SDS011;406;48.566;13.450;2022-07-03T09:31:16;6.97;;;3.37;;
840;SDS011;406;48.566;13.450;2022-07-03T09:34:02;3.47;;;2.77;;
840;SDS011;406;48.566;13.450;2022-07-03T09:36:48;8.70;;;4.10;;
840;SDS011;406;48.566;13.450;2022-07-03T09:44:28;2.90;;;2.60;;
840;SDS011;406;48.566;13.450;2022-07-03T09:55:13;4.40;;;2.70;;
840;SDS011;406;48.566;13.450;2022-07-03T09:57:41;3.07;;;2.77;;
840;SDS011;406;48.566;13.450;2022-07-03T10:00:22;2.90;;;2.70;;
840;SDS011;406;48.566;13.450;2022-07-03T10:02:58;4.37;;;3.20;;
840;SDS011;406;48.566;13.450;2022-07-03T10:05:36;3.20;;;2.90;;
840;SDS011;406;48.566;13.450;2022-07-03T10:08:07;3.10;;;2.90;;
840;SDS011;406;48.566;13.450;2022-07-03T10:10:43;4.23;;;3.00;;
840;SDS011;406;48.566;13.450;2022-07-03T10:13:11;8.50;;;3.27;;
840;SDS011;406;48.566;13.450;2022-07-03T10:15:38;4.33;;;2.53;;
840;SDS011;406;48.566;13.450;2022-07-03T10:18:08;3.47;;;3.17;;
840;SDS011;406;48.566;13.450;2022-07-03T10:20:35;3.03;;;2.80;;
840;SDS011;406;48.566;13.450;2022-07-03T10:23:11;3.20;;;2.50;;
840;SDS011;406;48.566;13.450;2022-07-03T10:25:37;3.00;;;2.80;;
840;SDS011;406;48.566;13.450;2022-07-03T10:28:05;3.03;;;2.77;;
840;SDS011;406;48.566;13.450;2022-07-03T10:30:31;4.30;;;3.00;;
840;SDS011;406;48.566;13.450;2022-07-03T10:32:57;3.10;;;2.80;;
840;SDS011;406;48.566;13.450;2022-07-03T10:35:24;3.00;;;2.80;;
840;SDS011;406;48.566;13.450;2022-07-03T10:43:28;5.17;;;2.50;;
840;SDS011;406;48.566;13.450;2022-07-03T10:46:15;4.23;;;3.00;;
840;SDS011;406;48.566;13.450;2022-07-03T10:49:23;2.60;;;2.40;;
840;SDS011;406;48.566;13.450;2022-07-03T11:07:31;2.60;;;2.40;;
840;SDS011;406;48.566;13.450;2022-07-03T11:15:33;4.30;;;2.30;;
840;SDS011;406;48.566;13.450;2022-07-03T11:20:30;2.80;;;2.60;;
840;SDS011;406;48.566;13.450;2022-07-03T11:23:01;2.67;;;2.47;;
840;SDS011;406;48.566;13.450;2022-07-03T11:25:39;2.80;;;2.40;;
840;SDS011;406;48.566;13.450;2022-07-03T11:28:05;2.47;;;2.27;;
840;SDS011;406;48.566;13.450;2022-07-03T11:30:31;2.57;;;2.37;;
840;SDS011;406;48.566;13.450;2022-07-03T11:32:57;2.43;;;2.23;;
840;SDS011;406;48.566;13.450;2022-07-03T11:38:17;2.37;;;2.13;;
840;SDS011;406;48.566;13.450;2022-07-03T11:40:45;2.50;;;2.30;;
840;SDS011;406;48.566;13.450;2022-07-03T11:43:13;2.43;;;2.23;;
840;SDS011;406;48.566;13.450;2022-07-03T11:45:39;2.10;;;1.90;;
840;SDS011;406;48.566;13.450;2022-07-03T11:48:06;3.10;;;1.87;;
840;SDS011;406;48.566;13.450;2022-07-03T11:50:40;2.43;;;2.23;;
840;SDS011;406;48.566;13.450;2022-07-03T11:55:48;2.70;;;2.50;;
840;SDS011;406;48.566;13.450;2022-07-03T11:58:18;2.90;;;2.60;;
840;SDS011;406;48.566;13.450;2022-07-03T12:00:44;2.93;;;2.00;;
840;SDS011;406;48.566;13.450;2022-07-03T12:03:20;2.00;;;1.80;;
840;SDS011;406;48.566;13.450;2022-07-03T12:05:50;3.60;;;3.00;;
840;SDS011;406;48.566;13.450;2022-07-03T12:08:27;2.63;;;2.40;;
840;SDS011;406;48.566;13.450;2022-07-03T12:10:58;2.10;;;1.90;;
840;SDS011;406;48.566;13.450;2022-07-03T12:13:28;2.60;;;1.83;;
840;SDS011;406;48.566;13.450;2022-07-03T12:16:01;2.53;;;2.27;;
840;SDS011;406;48.566;13.450;2022-07-03T12:18:27;2.60;;;2.40;;
840;SDS011;406;48.566;13.450;2022-07-03T12:21:06;2.63;;;1.87;;
840;SDS011;406;48.566;13.450;2022-07-03T12:23:39;2.60;;;1.80;;
840;SDS011;406;48.566;13.450;2022-07-03T12:26:05;2.57;;;2.37;;
840;SDS011;406;48.566;13.450;2022-07-03T12:28:31;3.00;;;1.97;;
840;SDS011;406;48.566;13.450;2022-07-03T12:30:56;2.13;;;1.90;;
840;SDS011;406;48.566;13.450;2022-07-03T12:33:22;8.80;;;2.50;;
840;SDS011;406;48.566;13.450;2022-07-03T12:36:01;3.83;;;2.70;;
840;SDS011;406;48.566;13.450;2022-07-03T12:38:36;7.83;;;2.33;;
840;SDS011;406;48.566;13.450;2022-07-03T12:41:08;4.40;;;2.53;;
840;SDS011;406;48.566;13.450;2022-07-03T12:43:41;2.43;;;2.27;;
840;SDS011;406;48.566;13.450;2022-07-03T12:48:52;3.50;;;3.00;;
840;SDS011;406;48.566;13.450;2022-07-03T12:54:21;4.47;;;2.70;;
840;SDS011;406;48.566;13.450;2022-07-03T12:57:04;2.67;;;1.93;;
840;SDS011;406;48.566;13.450;2022-07-03T13:00:04;2.20;;;2.00;;
840;SDS011;406;48.566;13.450;2022-07-03T13:02:32;2.40;;;2.13;;
840;SDS011;406;48.566;13.450;2022-07-03T13:04:58;2.33;;;2.10;;
840;SDS011;406;48.566;13.450;2022-07-03T13:07:27;1.87;;;1.77;;
840;SDS011;406;48.566;13.450;2022-07-03T13:09:54;3.70;;;2.83;;
840;SDS011;406;48.566;13.450;2022-07-03T13:12:23;2.80;;;2.23;;
840;SDS011;406;48.566;13.450;2022-07-03T13:14:55;2.70;;;2.13;;
840;SDS011;406;48.566;13.450;2022-07-03T13:17:24;2.53;;;2.33;;
840;SDS011;406;48.566;13.450;2022-07-03T13:20:09;2.27;;;2.10;;
840;SDS011;406;48.566;13.450;2022-07-03T13:22:34;2.67;;;2.47;;
840;SDS011;406;48.566;13.450;2022-07-03T13:25:00;3.00;;;2.20;;
840;SDS011;406;48.566;13.450;2022-07-03T13:27:25;1.97;;;1.87;;
840;SDS011;406;48.566;13.450;2022-07-03T13:29:51;1.90;;;1.80;;
840;SDS011;406;48.566;13.450;2022-07-03T13:32:16;2.30;;;2.10;;
840;SDS011;406;48.566;13.450;2022-07-03T13:34:42;2.50;;;2.17;;
840;SDS011;406;48.566;13.450;2022-07-03T13:37:07;3.53;;;2.50;;
840;SDS011;406;48.566;13.450;2022-07-03T13:39:33;2.70;;;2.50;;
840;SDS011;406;48.566;13.450;2022-07-03T13:41:58;2.03;;;1.93;;
840;SDS011;406;48.566;13.450;2022-07-03T13:44:24;2.27;;;2.07;;
840;SDS011;406;48.566;13.450;2022-07-03T13:46:49;2.23;;;1.70;;
840;SDS011;406;48.566;13.450;2022-07-03T13:49:15;2.40;;;2.20;;
840;SDS011;406;48.566;13.450;2022-07-03T13:51:40;2.50;;;2.30;;
840;SDS011;406;48.566;13.450;2022-07-03T13:54:06;4.30;;;2.60;;
840;SDS011;406;48.566;13.450;2022-07-03T13:56:31;2.90;;;2.70;;
840;SDS011;406;48.566;13.450;2022-07-03T13:58:57;1.90;;;1.80;;
840;SDS011;406;48.566;13.450;2022-07-03T14:01:22;2.73;;;2.27;;
840;SDS011;406;48.566;13.450;2022-07-03T14:03:48;2.53;;;2.33;;
840;SDS011;406;48.566;13.450;2022-07-03T14:06:14;2.93;;;2.70;;
840;SDS011;406;48.566;13.450;2022-07-03T14:08:39;3.10;;;2.53;;
840;SDS011;406;48.566;13.450;2022-07-03T14:11:05;2.70;;;2.50;;
840;SDS011;406;48.566;13.450;2022-07-03T14:13:31;2.70;;;2.50;;
840;SDS011;406;48.566;13.450;2022-07-03T14:15:56;2.23;;;2.03;;
840;SDS011;406;48.566;13.450;2022-07-03T14:18:21;3.73;;;2.43;;
840;SDS011;406;48.566;13.450;2022-07-03T14:20:47;3.30;;;2.60;;
840;SDS011;406;48.566;13.450;2022-07-03T14:23:12;2.93;;;1.80;;
840;SDS011;406;48.566;13.450;2022-07-03T14:25:38;2.87;;;2.57;;
840;SDS011;406;48.566;13.450;2022-07-03T14:28:04;2.87;;;2.13;;
840;SDS011;406;48.566;13.450;2022-07-03T14:30:48;3.70;;;2.70;;
840;SDS011;406;48.566;13.450;2022-07-03T14:33:32;2.47;;;2.27;;
840;SDS011;406;48.566;13.450;2022-07-03T14:35:57;2.60;;;2.40;;
840;SDS011;406;48.566;13.450;2022-07-03T14:38:23;3.83;;;2.60;;
840;SDS011;406;48.566;13.450;2022-07-03T14:40:49;2.90;;;1.87;;
840;SDS011;406;48.566;13.450;2022-07-03T14:43:14;2.70;;;2.50;;
840;SDS011;406;48.566;13.450;2022-07-03T14:45:40;2.83;;;2.53;;
840;SDS011;406;48.566;13.450;2022-07-03T14:48:05;2.33;;;2.13;;
840;SDS011;406;48.566;13.450;2022-07-03T14:50:31;2.53;;;2.33;;
840;SDS011;406;48.566;13.450;2022-07-03T14:52:56;3.20;;;2.20;;
840;SDS011;406;48.566;13.450;2022-07-03T14:55:22;7.63;;;2.30;;
840;SDS011;406;48.566;13.450;2022-07-03T14:58:13;2.20;;;2.00;;
840;SDS011;406;48.566;13.450;2022-07-03T15:00:52;2.27;;;1.90;;
840;SDS011;406;48.566;13.450;2022-07-03T15:03:30;2.47;;;2.27;;
840;SDS011;406;48.566;13.450;2022-07-03T15:05:59;6.00;;;1.87;;
840;SDS011;406;48.566;13.450;2022-07-03T15:11:03;2.50;;;2.30;;
840;SDS011;406;48.566;13.450;2022-07-03T15:13:32;6.90;;;2.30;;
840;SDS011;406;48.566;13.450;2022-07-03T15:15:59;2.90;;;2.70;;
840;SDS011;406;48.566;13.450;2022-07-03T15:18:24;2.40;;;2.30;;
840;SDS011;406;48.566;13.450;2022-07-03T15:20:50;1.90;;;1.80;;
840;SDS011;406;48.566;13.450;2022-07-03T15:23:19;2.70;;;1.90;;
840;SDS011;406;48.566;13.450;2022-07-03T15:25:46;2.70;;;2.50;;
840;SDS011;406;48.566;13.450;2022-07-03T15:28:12;2.53;;;2.33;;
840;SDS011;406;48.566;13.450;2022-07-03T15:30:47;1.70;;;1.60;;
840;SDS011;406;48.566;13.450;2022-07-03T15:33:14;2.27;;;2.10;;
840;SDS011;406;48.566;13.450;2022-07-03T15:35:44;2.13;;;2.03;;
840;SDS011;406;48.566;13.450;2022-07-03T15:46:02;2.37;;;2.03;;
840;SDS011;406;48.566;13.450;2022-07-03T15:51:23;2.90;;;1.90;;
840;SDS011;406;48.566;13.450;2022-07-03T15:53:56;1.73;;;1.63;;
840;SDS011;406;48.566;13.450;2022-07-03T15:56:29;3.93;;;1.93;;
840;SDS011;406;48.566;13.450;2022-07-03T15:59:00;1.80;;;1.70;;
840;SDS011;406;48.566;13.450;2022-07-03T16:01:28;2.50;;;2.30;;
840;SDS011;406;48.566;13.450;2022-07-03T16:04:17;2.13;;;1.93;;
840;SDS011;406;48.566;13.450;2022-07-03T16:06:44;2.57;;;2.37;;
840;SDS011;406;48.566;13.450;2022-07-03T16:09:11;2.70;;;2.50;;
840;SDS011;406;48.566;13.450;2022-07-03T16:11:37;5.53;;;1.73;;
840;SDS011;406;48.566;13.450;2022-07-03T16:14:05;2.17;;;2.07;;
840;SDS011;406;48.566;13.450;2022-07-03T16:16:31;2.30;;;2.20;;
840;SDS011;406;48.566;13.450;2022-07-03T16:19:02;1.57;;;1.47;;
840;SDS011;406;48.566;13.450;2022-07-03T16:21:29;5.07;;;1.77;;
840;SDS011;406;48.566;13.450;2022-07-03T16:23:55;2.00;;;1.90;;
840;SDS011;406;48.566;13.450;2022-07-03T16:26:21;14.63;;;3.30;;
840;SDS011;406;48.566;13.450;2022-07-03T16:28:47;2.43;;;2.23;;
840;SDS011;406;48.566;13.450;2022-07-03T16:31:14;2.00;;;1.90;;
840;SDS011;406;48.566;13.450;2022-07-03T16:33:44;1.97;;;1.87;;
840;SDS011;406;48.566;13.450;2022-07-03T16:36:19;2.00;;;1.83;;
840;SDS011;406;48.566;13.450;2022-07-03T16:38:48;2.60;;;2.40;;
840;SDS011;406;48.566;13.450;2022-07-03T16:41:17;3.40;;;2.10;;
840;SDS011;406;48.566;13.450;2022-07-03T16:43:46;3.17;;;2.17;;
840;SDS011;406;48.566;13.450;2022-07-03T16:46:12;2.07;;;1.90;;
840;SDS011;406;48.566;13.450;2022-07-03T16:48:48;4.83;;;1.70;;
840;SDS011;406;48.566;13.450;2022-07-03T16:51:14;2.00;;;1.90;;
840;SDS011;406;48.566;13.450;2022-07-03T16:53:42;2.00;;;1.90;;
840;SDS011;406;48.566;13.450;2022-07-03T16:56:09;2.43;;;1.97;;
840;SDS011;406;48.566;13.450;2022-07-03T16:58:35;1.90;;;1.80;;
840;SDS011;406;48.566;13.450;2022-07-03T17:01:05;2.90;;;2.17;;
840;SDS011;406;48.566;13.450;2022-07-03T17:03:31;2.30;;;2.20;;
840;SDS011;406;48.566;13.450;2022-07-03T17:05:58;2.60;;;2.30;;
840;SDS011;406;48.566;13.450;2022-07-03T17:08:23;2.30;;;2.10;;
840;SDS011;406;48.566;13.450;2022-07-03T17:10:49;3.33;;;2.20;;
840;SDS011;406;48.566;13.450;2022-07-03T17:13:15;2.03;;;1.93;;